Time;durP1;ratioP1;P1;durP2;ratioP2;P2;SDS_P1;SDS_P2;PMS_P1;PMS_P2;Temp;Humidity;BMP_temperature;BMP_pressure;BME280_temperature;BME280_humidity;BME280_pressure;Samples;Min_cycle;Max_cycle;Signal;HPM_P1;HPM_P2
2023/09/22 00:01:25;;;;;;;11.73;8.65;;;;;;;;;;5032674;28;20391;-59
2023/09/22 00:03:52;;;;;;;12.80;8.68;;;;;;;;;;5032993;28;20082;-59
2023/09/22 00:06:19;;;;;;;9.05;7.80;;;;;;;;;;5032646;28;20024;-59
2023/09/22 00:08:45;;;;;;;11.50;8.93;;;;;;;;;;5032663;28;20112;-59
2023/09/22 00:11:11;;;;;;;10.70;7.63;;;;;;;;;;5032701;28;20438;-59
2023/09/22 00:13:37;;;;;;;10.88;8.30;;;;;;;;;;5032438;28;20025;-59
2023/09/22 00:16:04;;;;;;;11.25;8.05;;;;;;;;;;5031270;28;20456;-59
2023/09/22 00:18:30;;;;;;;14.50;8.38;;;;;;;;;;5032438;28;20021;-59
2023/09/22 00:20:56;;;;;;;10.68;8.70;;;;;;;;;;5032158;28;20094;-59
2023/09/22 00:23:22;;;;;;;11.77;8.35;;;;;;;;;;5032456;28;20053;-59
2023/09/22 00:25:48;;;;;;;13.35;9.73;;;;;;;;;;5032337;28;20025;-59
2023/09/22 00:28:14;;;;;;;11.18;9.18;;;;;;;;;;5032378;28;20025;-59
2023/09/22 00:30:40;;;;;;;9.75;8.15;;;;;;;;;;5032435;28;20021;-59
2023/09/22 00:33:06;;;;;;;9.93;8.40;;;;;;;;;;5032098;28;20163;-59
2023/09/22 00:35:32;;;;;;;14.77;8.32;;;;;;;;;;5032207;28;20022;-60
2023/09/22 00:37:59;;;;;;;12.25;8.90;;;;;;;;;;5032202;28;20045;-59
2023/09/22 00:40:25;;;;;;;14.23;8.65;;;;;;;;;;5032174;28;20105;-59
2023/09/22 00:43:11;;;;;;;11.45;8.30;;;;;;;;;;5014106;28;20470;-59
2023/09/22 00:45:41;;;;;;;10.60;8.52;;;;;;;;;;5019987;28;20017;-59
2023/09/22 00:48:08;;;;;;;12.77;9.32;;;;;;;;;;5030621;28;20021;-59
2023/09/22 00:50:34;;;;;;;14.05;9.60;;;;;;;;;;5030118;28;20040;-60
2023/09/22 00:53:00;;;;;;;11.15;8.75;;;;;;;;;;5029334;28;20030;-59
2023/09/22 00:55:27;;;;;;;11.77;9.05;;;;;;;;;;5025696;28;20030;-59
2023/09/22 00:57:53;;;;;;;12.15;10.10;;;;;;;;;;5031931;28;20021;-59
2023/09/22 01:00:19;;;;;;;14.10;9.13;;;;;;;;;;5032188;28;20104;-58
2023/09/22 01:02:45;;;;;;;14.15;9.77;;;;;;;;;;5031679;28;20128;-59
2023/09/22 01:05:11;;;;;;;14.50;10.20;;;;;;;;;;5032066;28;20668;-59
2023/09/22 01:07:38;;;;;;;15.70;10.02;;;;;;;;;;5031741;28;20013;-59
2023/09/22 01:10:07;;;;;;;14.23;11.05;;;;;;;;;;5031559;28;20040;-59
2023/09/22 01:12:33;;;;;;;13.10;11.25;;;;;;;;;;5030557;28;20029;-59
2023/09/22 01:15:00;;;;;;;14.15;10.98;;;;;;;;;;5030321;28;20032;-58
2023/09/22 01:17:26;;;;;;;15.27;10.60;;;;;;;;;;5030399;28;20030;-59
2023/09/22 01:19:52;;;;;;;12.63;11.32;;;;;;;;;;5030884;28;20045;-59
2023/09/22 01:22:20;;;;;;;14.00;10.00;;;;;;;;;;5031075;28;20410;-59
2023/09/22 01:24:46;;;;;;;11.73;10.45;;;;;;;;;;5030853;28;20022;-59
2023/09/22 01:27:12;;;;;;;14.63;11.05;;;;;;;;;;5030831;28;20108;-59
2023/09/22 01:29:40;;;;;;;11.85;10.65;;;;;;;;;;5031037;28;20498;-58
2023/09/22 01:32:09;;;;;;;12.45;10.25;;;;;;;;;;5031031;28;20032;-59
2023/09/22 01:34:35;;;;;;;13.38;10.60;;;;;;;;;;5012987;28;20093;-59
2023/09/22 01:37:07;;;;;;;13.15;10.82;;;;;;;;;;5031351;28;20385;-59
2023/09/22 01:39:33;;;;;;;14.35;10.82;;;;;;;;;;5031554;28;20018;-59
2023/09/22 01:41:59;;;;;;;12.95;11.07;;;;;;;;;;5031759;28;20047;-59
2023/09/22 01:44:25;;;;;;;14.27;10.57;;;;;;;;;;5031248;28;20026;-59
2023/09/22 01:46:51;;;;;;;12.77;10.30;;;;;;;;;;5031343;28;20030;-59
2023/09/22 01:49:17;;;;;;;13.30;9.77;;;;;;;;;;5030828;28;20077;-59
2023/09/22 01:51:43;;;;;;;13.88;10.82;;;;;;;;;;5013582;28;20021;-59
2023/09/22 01:54:09;;;;;;;13.77;10.55;;;;;;;;;;5031474;28;20029;-59
2023/09/22 01:56:35;;;;;;;17.00;10.38;;;;;;;;;;5033110;28;20435;-59
2023/09/22 01:59:01;;;;;;;12.05;9.90;;;;;;;;;;5032729;28;20041;-59
2023/09/22 02:01:27;;;;;;;14.00;10.27;;;;;;;;;;5033313;28;20108;-59
2023/09/22 02:03:53;;;;;;;10.35;9.10;;;;;;;;;;5033975;28;20361;-59
2023/09/22 02:06:19;;;;;;;15.80;10.00;;;;;;;;;;5035065;28;20031;-59
2023/09/22 02:08:45;;;;;;;11.38;8.48;;;;;;;;;;5035003;28;20451;-59
2023/09/22 02:11:11;;;;;;;10.60;8.23;;;;;;;;;;5034797;28;20044;-59
2023/09/22 02:13:38;;;;;;;11.15;8.30;;;;;;;;;;5034999;28;20485;-59
2023/09/22 02:16:04;;;;;;;8.75;7.70;;;;;;;;;;5034884;28;20087;-59
2023/09/22 02:18:30;;;;;;;13.45;8.18;;;;;;;;;;5034796;28;20471;-59
2023/09/22 02:20:56;;;;;;;9.68;7.90;;;;;;;;;;5034541;28;20045;-59
2023/09/22 02:23:22;;;;;;;14.38;8.25;;;;;;;;;;5034607;28;20518;-58
2023/09/22 02:25:48;;;;;;;9.98;6.82;;;;;;;;;;5034676;28;20021;-59
2023/09/22 02:28:14;;;;;;;10.02;7.28;;;;;;;;;;5034820;28;20040;-59
2023/09/22 02:30:40;;;;;;;8.45;6.30;;;;;;;;;;5034637;28;20480;-59
2023/09/22 02:33:08;;;;;;;7.63;5.93;;;;;;;;;;5016896;28;20048;-59
2023/09/22 02:35:34;;;;;;;9.48;6.60;;;;;;;;;;5034670;28;20050;-60
2023/09/22 02:38:00;;;;;;;10.18;6.15;;;;;;;;;;5035024;28;20036;-60
2023/09/22 02:40:29;;;;;;;10.73;5.97;;;;;;;;;;5034762;28;20029;-59
2023/09/22 02:42:55;;;;;;;8.10;5.50;;;;;;;;;;5034412;28;20385;-58
2023/09/22 02:45:22;;;;;;;9.02;5.53;;;;;;;;;;5034508;28;20075;-59
2023/09/22 02:47:48;;;;;;;9.73;5.15;;;;;;;;;;5034137;28;20045;-58
2023/09/22 02:50:17;;;;;;;8.63;5.00;;;;;;;;;;5034243;28;20056;-58
2023/09/22 02:52:48;;;;;;;10.43;5.30;;;;;;;;;;5034078;28;20475;-59
2023/09/22 02:55:14;;;;;;;10.82;5.20;;;;;;;;;;5021446;28;20021;-59
2023/09/22 02:57:42;;;;;;;10.65;6.20;;;;;;;;;;5034270;28;20149;-59
2023/09/22 03:00:14;;;;;;;7.50;5.78;;;;;;;;;;5034076;28;20383;-59
2023/09/22 03:02:40;;;;;;;9.63;5.90;;;;;;;;;;5034372;28;20037;-60
2023/09/22 03:05:10;;;;;;;10.00;6.40;;;;;;;;;;5033875;28;20022;-59
2023/09/22 03:07:36;;;;;;;9.48;6.30;;;;;;;;;;5033618;28;20309;-59
2023/09/22 03:10:06;;;;;;;10.10;6.10;;;;;;;;;;5033917;28;20075;-59
2023/09/22 03:12:33;;;;;;;11.85;6.85;;;;;;;;;;5034063;28;20045;-59
2023/09/22 03:14:59;;;;;;;10.57;6.40;;;;;;;;;;5033812;28;20052;-59
2023/09/22 03:17:25;;;;;;;9.45;6.57;;;;;;;;;;5031895;28;20025;-59
2023/09/22 03:19:51;;;;;;;12.05;7.35;;;;;;;;;;5031763;28;20518;-62
2023/09/22 03:28:25;;;;;;;9.88;6.90;;;;;;;;;;5025386;28;20055;-60
2023/09/22 03:30:51;;;;;;;10.40;7.30;;;;;;;;;;5048865;28;20458;-59
2023/09/22 03:33:17;;;;;;;12.32;8.35;;;;;;;;;;5033487;28;20030;-59
2023/09/22 03:35:43;;;;;;;8.93;8.02;;;;;;;;;;5033438;28;20022;-59
2023/09/22 03:38:09;;;;;;;11.00;8.00;;;;;;;;;;5033693;28;20032;-59
2023/09/22 03:40:41;;;;;;;12.57;8.38;;;;;;;;;;5033253;28;20021;-59
2023/09/22 03:43:07;;;;;;;11.13;9.27;;;;;;;;;;5033379;28;20560;-59
2023/09/22 03:45:33;;;;;;;13.02;10.15;;;;;;;;;;5033261;28;20017;-59
2023/09/22 03:48:03;;;;;;;10.80;9.60;;;;;;;;;;5033103;28;20147;-58
2023/09/22 03:50:29;;;;;;;12.30;10.52;;;;;;;;;;5015329;28;20025;-59
2023/09/22 03:52:55;;;;;;;11.55;10.15;;;;;;;;;;5033061;28;20044;-59
2023/09/22 03:55:21;;;;;;;12.98;10.65;;;;;;;;;;5033062;28;20100;-59
2023/09/22 03:57:47;;;;;;;14.60;11.90;;;;;;;;;;5032986;28;20029;-59
2023/09/22 04:00:24;;;;;;;13.13;10.88;;;;;;;;;;5033039;28;20075;-59
2023/09/22 04:02:50;;;;;;;12.98;11.38;;;;;;;;;;5032836;28;20451;-59
2023/09/22 04:05:16;;;;;;;19.17;11.05;;;;;;;;;;5032689;28;20018;-58
2023/09/22 04:07:42;;;;;;;14.88;10.85;;;;;;;;;;5032770;28;20100;-59
2023/09/22 04:10:10;;;;;;;16.73;12.40;;;;;;;;;;5033014;28;20080;-58
2023/09/22 04:12:36;;;;;;;15.88;13.00;;;;;;;;;;5032628;28;20510;-59
2023/09/22 04:15:04;;;;;;;15.07;12.27;;;;;;;;;;5015026;28;20021;-59
2023/09/22 04:17:31;;;;;;;16.45;13.10;;;;;;;;;;5032675;28;20447;-59
2023/09/22 04:19:58;;;;;;;14.82;13.25;;;;;;;;;;5031807;28;20051;-59
2023/09/22 04:22:24;;;;;;;16.13;13.15;;;;;;;;;;5032621;28;20065;-59
2023/09/22 04:24:59;;;;;;;17.77;14.35;;;;;;;;;;5032440;28;20029;-59
2023/09/22 04:27:32;;;;;;;20.25;15.70;;;;;;;;;;5032805;28;20032;-59
2023/09/22 04:29:58;;;;;;;20.07;14.43;;;;;;;;;;5014546;28;20021;-59
2023/09/22 04:32:24;;;;;;;16.77;15.00;;;;;;;;;;5014667;28;20033;-59
2023/09/22 04:34:52;;;;;;;20.27;15.40;;;;;;;;;;5032526;28;20060;-60
2023/09/22 04:37:18;;;;;;;17.65;15.73;;;;;;;;;;5032457;28;20494;-59
2023/09/22 04:39:44;;;;;;;20.50;15.27;;;;;;;;;;5032358;28;20025;-59
2023/09/22 04:42:10;;;;;;;17.10;14.75;;;;;;;;;;5032114;28;20213;-59
2023/09/22 04:44:36;;;;;;;22.67;15.80;;;;;;;;;;5014532;28;20025;-58
2023/09/22 04:47:02;;;;;;;19.02;15.10;;;;;;;;;;5031790;28;20097;-59
2023/09/22 04:49:28;;;;;;;16.17;14.50;;;;;;;;;;5032233;28;20022;-59
2023/09/22 04:51:54;;;;;;;17.90;13.93;;;;;;;;;;5032044;28;20041;-59
2023/09/22 04:54:20;;;;;;;18.98;14.48;;;;;;;;;;5032097;28;20155;-59
2023/09/22 04:56:46;;;;;;;16.63;14.57;;;;;;;;;;5031884;28;20033;-59
2023/09/22 04:59:12;;;;;;;15.50;13.07;;;;;;;;;;5031972;28;20053;-59
2023/09/22 05:01:39;;;;;;;13.75;12.40;;;;;;;;;;5032182;28;20441;-59
2023/09/22 05:04:05;;;;;;;15.73;12.43;;;;;;;;;;5031943;28;20044;-59
2023/09/22 05:06:31;;;;;;;18.83;11.88;;;;;;;;;;5032060;28;20033;-59
2023/09/22 05:08:57;;;;;;;15.43;10.90;;;;;;;;;;5000065;28;20022;-59
2023/09/22 05:11:23;;;;;;;15.18;11.13;;;;;;;;;;5031916;28;20030;-59
2023/09/22 05:13:49;;;;;;;12.73;10.68;;;;;;;;;;5031704;28;20108;-59
2023/09/22 05:16:18;;;;;;;15.13;11.00;;;;;;;;;;5031605;28;20459;-59
2023/09/22 05:18:44;;;;;;;15.73;10.80;;;;;;;;;;5031671;28;20558;-59
2023/09/22 05:21:10;;;;;;;14.18;10.57;;;;;;;;;;5031274;28;20088;-59
2023/09/22 05:23:36;;;;;;;13.40;10.98;;;;;;;;;;5031645;28;20028;-59
2023/09/22 05:26:09;;;;;;;16.10;11.20;;;;;;;;;;5031687;28;20037;-58
2023/09/22 05:28:36;;;;;;;12.48;10.77;;;;;;;;;;5031846;28;20017;-59
2023/09/22 05:31:05;;;;;;;13.05;10.73;;;;;;;;;;5034437;28;20491;-59
2023/09/22 05:33:35;;;;;;;13.18;9.57;;;;;;;;;;5035610;28;20045;-59
2023/09/22 05:36:01;;;;;;;12.55;10.15;;;;;;;;;;5035842;28;20048;-59
2023/09/22 05:38:27;;;;;;;16.02;11.10;;;;;;;;;;5035645;28;20026;-59
2023/09/22 05:40:54;;;;;;;13.85;10.45;;;;;;;;;;5035743;28;20036;-59
2023/09/22 05:43:22;;;;;;;11.27;9.55;;;;;;;;;;5035656;28;20076;-59
2023/09/22 05:45:58;;;;;;;13.05;9.30;;;;;;;;;;5033053;28;20022;-58
2023/09/22 05:48:24;;;;;;;16.33;9.98;;;;;;;;;;5031789;28;20029;-59
2023/09/22 05:50:57;;;;;;;12.57;9.75;;;;;;;;;;5030352;28;20025;-62
2023/09/22 05:53:25;;;;;;;12.30;10.10;;;;;;;;;;5032313;28;20424;-62
2023/09/22 05:56:02;;;;;;;12.50;9.82;;;;;;;;;;5028488;28;20120;-60
2023/09/22 05:58:28;;;;;;;10.85;9.68;;;;;;;;;;5033096;28;20096;-63
2023/09/22 06:00:54;;;;;;;10.80;9.50;;;;;;;;;;5017168;28;20064;-64
2023/09/22 06:03:20;;;;;;;12.45;8.27;;;;;;;;;;5035200;28;20028;-64
2023/09/22 06:05:46;;;;;;;11.32;9.20;;;;;;;;;;5017217;28;20021;-64
2023/09/22 06:08:12;;;;;;;12.95;8.90;;;;;;;;;;5034910;28;20028;-65
2023/09/22 06:10:38;;;;;;;10.70;9.38;;;;;;;;;;5034977;28;20017;-64
2023/09/22 06:13:04;;;;;;;9.48;7.88;;;;;;;;;;5034967;28;20075;-64
2023/09/22 06:15:30;;;;;;;9.15;8.02;;;;;;;;;;5017105;28;20017;-65
2023/09/22 06:17:56;;;;;;;11.73;9.13;;;;;;;;;;5034386;28;20447;-66
2023/09/22 06:20:22;;;;;;;12.27;8.30;;;;;;;;;;5029067;28;20041;-65
2023/09/22 06:22:49;;;;;;;10.38;8.68;;;;;;;;;;5016823;28;20034;-63
2023/09/22 06:25:15;;;;;;;11.23;7.65;;;;;;;;;;5034954;28;20493;-66
2023/09/22 06:27:43;;;;;;;10.75;7.50;;;;;;;;;;5017012;28;20021;-66
2023/09/22 06:30:12;;;;;;;8.20;7.40;;;;;;;;;;5034769;28;20026;-66
2023/09/22 06:32:42;;;;;;;11.93;7.75;;;;;;;;;;5034699;28;20431;-67
2023/09/22 06:35:11;;;;;;;11.98;7.63;;;;;;;;;;5033540;28;20387;-67
2023/09/22 06:37:38;;;;;;;11.38;7.97;;;;;;;;;;5009546;28;20022;-67
2023/09/22 06:40:11;;;;;;;11.85;7.25;;;;;;;;;;5034526;28;20033;-67
2023/09/22 06:42:38;;;;;;;10.95;7.45;;;;;;;;;;5033580;28;20117;-67
2023/09/22 06:45:04;;;;;;;11.95;7.75;;;;;;;;;;5034699;28;20514;-67
2023/09/22 06:47:33;;;;;;;11.93;7.60;;;;;;;;;;5034070;28;20018;-67
2023/09/22 06:50:02;;;;;;;8.20;6.38;;;;;;;;;;5034295;28;20022;-67
2023/09/22 06:52:28;;;;;;;12.18;7.13;;;;;;;;;;5034219;28;20029;-68
2023/09/22 06:54:54;;;;;;;10.43;6.88;;;;;;;;;;5034297;28;20372;-60
2023/09/22 06:57:20;;;;;;;9.82;6.40;;;;;;;;;;5034169;28;20029;-60
2023/09/22 06:59:46;;;;;;;13.60;8.80;;;;;;;;;;5034406;28;20025;-60
2023/09/22 07:02:12;;;;;;;10.23;6.43;;;;;;;;;;5034385;28;20065;-65
2023/09/22 07:04:38;;;;;;;8.15;6.03;;;;;;;;;;5033944;28;20372;-63
2023/09/22 07:07:04;;;;;;;10.68;8.15;;;;;;;;;;5033953;28;20033;-72
2023/09/22 07:09:30;;;;;;;12.02;8.70;;;;;;;;;;5033271;28;20442;-67
2023/09/22 07:11:57;;;;;;;6.40;5.03;;;;;;;;;;5034043;28;20420;-68
2023/09/22 07:14:24;;;;;;;11.23;5.90;;;;;;;;;;5017209;28;20029;-67
2023/09/22 07:16:50;;;;;;;10.57;6.38;;;;;;;;;;5016013;28;20369;-68
2023/09/22 07:19:16;;;;;;;12.48;6.40;;;;;;;;;;5034551;28;20455;-65
2023/09/22 07:21:42;;;;;;;6.90;5.28;;;;;;;;;;5033620;28;20084;-69
2023/09/22 07:24:08;;;;;;;11.65;6.50;;;;;;;;;;5033757;28;20032;-64
2023/09/22 07:26:34;;;;;;;8.18;5.53;;;;;;;;;;5032100;28;20022;-64
2023/09/22 07:29:00;;;;;;;10.30;6.03;;;;;;;;;;5033905;28;20021;-73
2023/09/22 07:31:30;;;;;;;9.88;6.28;;;;;;;;;;5033506;28;20063;-68
2023/09/22 07:33:56;;;;;;;10.55;6.20;;;;;;;;;;5033276;28;20040;-67
2023/09/22 07:36:22;;;;;;;14.27;7.13;;;;;;;;;;5020072;28;20530;-63
2023/09/22 07:38:49;;;;;;;8.25;5.43;;;;;;;;;;5029205;28;20033;-61
2023/09/22 07:41:15;;;;;;;7.57;5.80;;;;;;;;;;5028557;28;20041;-61
2023/09/22 07:43:41;;;;;;;8.23;5.38;;;;;;;;;;5031889;28;20026;-51
2023/09/22 07:46:07;;;;;;;8.80;5.50;;;;;;;;;;5005557;28;20094;-50
2023/09/22 07:48:34;;;;;;;8.35;5.30;;;;;;;;;;5033147;28;20074;-50
2023/09/22 07:51:01;;;;;;;9.63;6.07;;;;;;;;;;5033105;28;20029;-51
2023/09/22 07:53:27;;;;;;;8.90;5.68;;;;;;;;;;5014123;28;20033;-51
2023/09/22 07:55:55;;;;;;;11.18;6.28;;;;;;;;;;5033054;28;20033;-50
2023/09/22 07:58:22;;;;;;;9.13;6.70;;;;;;;;;;5033000;28;20022;-53
2023/09/22 08:00:48;;;;;;;10.63;6.25;;;;;;;;;;5015100;28;20530;-50
2023/09/22 08:03:14;;;;;;;11.05;7.45;;;;;;;;;;5031440;28;20099;-53
2023/09/22 08:05:40;;;;;;;8.82;7.50;;;;;;;;;;5014889;28;20401;-52
2023/09/22 08:08:07;;;;;;;10.32;6.15;;;;;;;;;;5032755;28;20068;-50
2023/09/22 08:10:33;;;;;;;11.32;9.98;;;;;;;;;;5015001;28;20017;-54
2023/09/22 08:12:59;;;;;;;12.55;6.75;;;;;;;;;;5031790;28;20455;-52
2023/09/22 08:15:26;;;;;;;10.18;6.40;;;;;;;;;;5023935;28;20032;-56
2023/09/22 08:17:52;;;;;;;7.43;5.88;;;;;;;;;;5030045;28;20025;-55
2023/09/22 08:20:19;;;;;;;8.13;6.47;;;;;;;;;;5028195;28;20060;-55
2023/09/22 08:25:49;;;;;;;9.25;6.78;;;;;;;;;;5022411;28;20056;-50
2023/09/22 08:28:15;;;;;;;9.70;6.75;;;;;;;;;;5029386;28;20064;-54
2023/09/22 08:30:41;;;;;;;11.40;8.13;;;;;;;;;;5028625;28;20049;-54
2023/09/22 08:33:08;;;;;;;10.38;8.38;;;;;;;;;;5026562;28;20029;-53
2023/09/22 08:35:34;;;;;;;11.50;7.60;;;;;;;;;;5029322;28;20109;-55
2023/09/22 08:38:04;;;;;;;14.52;8.43;;;;;;;;;;5028202;28;20032;-53
2023/09/22 08:40:30;;;;;;;9.65;7.28;;;;;;;;;;5027998;28;20048;-54
2023/09/22 08:42:57;;;;;;;10.02;8.27;;;;;;;;;;5031585;28;20038;-52
2023/09/22 08:45:23;;;;;;;11.82;7.00;;;;;;;;;;5014047;28;20041;-55
2023/09/22 08:47:50;;;;;;;8.20;6.63;;;;;;;;;;5032059;28;20029;-59
2023/09/22 08:50:18;;;;;;;12.02;7.70;;;;;;;;;;5032010;28;20017;-59
2023/09/22 08:52:46;;;;;;;10.20;6.43;;;;;;;;;;5030474;28;20734;-58
2023/09/22 08:55:13;;;;;;;9.32;6.72;;;;;;;;;;5031999;28;20022;-59
2023/09/22 08:57:46;;;;;;;12.70;7.43;;;;;;;;;;5014033;28;20185;-58
2023/09/22 09:00:18;;;;;;;12.20;7.53;;;;;;;;;;5014286;28;20057;-58
2023/09/22 09:02:45;;;;;;;11.68;7.10;;;;;;;;;;5029249;28;20146;-59
2023/09/22 09:05:23;;;;;;;11.18;7.32;;;;;;;;;;5028097;28;20032;-59
2023/09/22 09:07:50;;;;;;;10.63;7.40;;;;;;;;;;5032145;28;20379;-58
2023/09/22 09:10:26;;;;;;;12.23;7.78;;;;;;;;;;5031916;28;20501;-58
2023/09/22 09:12:52;;;;;;;8.90;6.72;;;;;;;;;;5029677;28;20022;-59
2023/09/22 09:15:18;;;;;;;15.20;6.78;;;;;;;;;;5030982;28;20455;-58
2023/09/22 09:17:46;;;;;;;7.05;5.85;;;;;;;;;;5031530;28;20096;-58
2023/09/22 09:20:12;;;;;;;11.43;6.65;;;;;;;;;;5031632;28;20049;-59
2023/09/22 09:22:40;;;;;;;10.80;6.85;;;;;;;;;;5031859;28;20029;-59
2023/09/22 09:28:11;;;;;;;10.38;6.80;;;;;;;;;;5031827;28;20072;-59
2023/09/22 09:30:37;;;;;;;7.68;5.95;;;;;;;;;;5029366;28;20029;-59
2023/09/22 09:33:10;;;;;;;8.50;6.00;;;;;;;;;;5036512;28;20033;-59
2023/09/22 09:35:37;;;;;;;11.55;7.03;;;;;;;;;;5018280;28;20078;-59
2023/09/22 09:38:03;;;;;;;11.07;6.80;;;;;;;;;;5028644;28;20502;-52
2023/09/22 09:40:29;;;;;;;13.50;7.13;;;;;;;;;;5027258;28;20080;-66
2023/09/22 09:42:57;;;;;;;10.10;6.70;;;;;;;;;;5027798;28;20519;-67
2023/09/22 09:45:23;;;;;;;13.15;6.85;;;;;;;;;;5028242;28;20029;-61
2023/09/22 09:47:53;;;;;;;8.77;6.75;;;;;;;;;;5029726;28;20064;-60
2023/09/22 09:50:21;;;;;;;9.88;6.78;;;;;;;;;;5030672;28;20025;-58
2023/09/22 09:52:55;;;;;;;8.55;6.50;;;;;;;;;;5030080;28;20049;-58
2023/09/22 09:55:24;;;;;;;16.17;7.85;;;;;;;;;;5018375;28;20032;-58
2023/09/22 09:57:56;;;;;;;8.45;7.07;;;;;;;;;;5030074;28;20040;-56
2023/09/22 10:00:22;;;;;;;10.48;7.60;;;;;;;;;;5030139;28;20021;-54
2023/09/22 10:02:50;;;;;;;10.23;8.15;;;;;;;;;;5026387;28;20522;-56
2023/09/22 10:05:18;;;;;;;12.05;8.30;;;;;;;;;;5029635;28;20025;-60
2023/09/22 10:07:44;;;;;;;10.60;8.07;;;;;;;;;;5012484;28;20056;-59
2023/09/22 10:10:14;;;;;;;10.65;7.38;;;;;;;;;;5029609;28;20125;-52
2023/09/22 10:12:43;;;;;;;11.15;9.00;;;;;;;;;;5030217;28;20574;-57
2023/09/22 10:15:10;;;;;;;14.68;7.75;;;;;;;;;;5030249;28;20095;-59
2023/09/22 10:17:38;;;;;;;13.07;7.15;;;;;;;;;;5031515;28;20391;-59
2023/09/22 10:20:11;;;;;;;10.32;7.13;;;;;;;;;;5027983;28;20088;-60
2023/09/22 10:22:41;;;;;;;12.40;7.23;;;;;;;;;;5033765;28;20041;-59
2023/09/22 10:25:13;;;;;;;10.15;7.60;;;;;;;;;;5014934;28;20037;-59
2023/09/22 10:28:02;;;;;;;9.32;7.53;;;;;;;;;;5033597;28;20063;-59
2023/09/22 10:30:43;;;;;;;13.10;8.77;;;;;;;;;;5020660;28;20057;-59
2023/09/22 10:33:22;;;;;;;10.75;8.82;;;;;;;;;;5034248;28;20367;-59
2023/09/22 10:35:49;;;;;;;10.57;7.85;;;;;;;;;;5028818;28;20041;-58
2023/09/22 10:38:15;;;;;;;13.68;8.70;;;;;;;;;;5033768;28;20391;-59
2023/09/22 10:40:59;;;;;;;16.67;11.18;;;;;;;;;;5015201;28;20496;-58
2023/09/22 10:43:26;;;;;;;13.45;10.65;;;;;;;;;;5031239;28;20037;-59
2023/09/22 10:45:52;;;;;;;14.10;8.65;;;;;;;;;;5033069;28;20037;-58
2023/09/22 10:48:18;;;;;;;12.27;9.98;;;;;;;;;;5033683;28;20036;-59
2023/09/22 10:50:51;;;;;;;14.40;10.10;;;;;;;;;;5032096;28;20034;-58
2023/09/22 10:53:17;;;;;;;15.10;11.85;;;;;;;;;;5033639;28;20399;-59
2023/09/22 10:55:44;;;;;;;15.68;12.13;;;;;;;;;;5033097;28;20073;-58
2023/09/22 10:58:11;;;;;;;12.77;10.73;;;;;;;;;;5033195;28;20029;-59
2023/09/22 11:00:39;;;;;;;16.17;12.25;;;;;;;;;;5032964;28;20479;-59
2023/09/22 11:03:06;;;;;;;12.32;10.65;;;;;;;;;;5033427;28;20479;-59
2023/09/22 11:05:34;;;;;;;15.82;10.45;;;;;;;;;;5033260;28;20049;-59
2023/09/22 11:14:41;;;;;;;13.77;11.73;;;;;;;;;;5027379;28;20036;-60
2023/09/22 11:17:07;;;;;;;14.70;10.35;;;;;;;;;;5032240;28;20044;-58
2023/09/22 11:19:33;;;;;;;13.00;10.65;;;;;;;;;;5033659;28;20468;-58
2023/09/22 11:21:59;;;;;;;17.15;10.27;;;;;;;;;;5033737;28;20035;-58
2023/09/22 11:24:25;;;;;;;13.38;10.13;;;;;;;;;;5031457;28;20101;-58
2023/09/22 11:26:51;;;;;;;12.57;9.80;;;;;;;;;;5033725;28;20029;-58
2023/09/22 11:29:17;;;;;;;14.55;10.68;;;;;;;;;;5033353;28;20024;-58
2023/09/22 11:31:50;;;;;;;16.95;11.18;;;;;;;;;;5033766;28;20070;-58
2023/09/22 11:34:18;;;;;;;11.93;9.55;;;;;;;;;;5033252;28;20037;-58
2023/09/22 11:36:51;;;;;;;15.68;10.93;;;;;;;;;;5033379;28;20056;-58
2023/09/22 11:39:43;;;;;;;14.45;11.88;;;;;;;;;;5033395;28;20029;-58
2023/09/22 11:42:09;;;;;;;16.70;12.63;;;;;;;;;;5017983;28;20054;-58
2023/09/22 11:44:36;;;;;;;16.05;12.85;;;;;;;;;;5033358;28;20375;-58
2023/09/22 11:47:03;;;;;;;14.05;11.68;;;;;;;;;;5033345;28;20030;-58
2023/09/22 11:49:36;;;;;;;12.65;9.68;;;;;;;;;;5033206;28;20371;-58
2023/09/22 11:52:03;;;;;;;17.42;11.82;;;;;;;;;;5033218;28;20029;-58
2023/09/22 11:54:31;;;;;;;15.63;10.77;;;;;;;;;;5033133;28;20030;-58
2023/09/22 11:56:58;;;;;;;13.25;11.38;;;;;;;;;;5032935;28;20044;-58
2023/09/22 11:59:31;;;;;;;12.57;9.77;;;;;;;;;;5032182;28;20375;-58
2023/09/22 12:02:09;;;;;;;14.55;10.05;;;;;;;;;;5032930;28;20037;-58
2023/09/22 12:04:37;;;;;;;14.32;10.40;;;;;;;;;;5002390;28;20037;-58
2023/09/22 12:07:03;;;;;;;14.55;9.82;;;;;;;;;;5033240;28;20027;-58
2023/09/22 12:09:29;;;;;;;12.18;10.00;;;;;;;;;;5032848;28;20025;-58
2023/09/22 12:11:56;;;;;;;14.63;9.88;;;;;;;;;;5033010;28;20031;-58
2023/09/22 12:14:23;;;;;;;13.43;9.50;;;;;;;;;;5031118;28;20071;-58
2023/09/22 12:16:51;;;;;;;10.88;9.48;;;;;;;;;;5031259;28;20026;-58
2023/09/22 12:19:19;;;;;;;9.27;7.80;;;;;;;;;;5032592;28;20366;-58
2023/09/22 12:21:45;;;;;;;11.27;8.45;;;;;;;;;;5031959;28;20153;-57
2023/09/22 12:24:11;;;;;;;11.35;9.98;;;;;;;;;;5032450;28;20072;-58
2023/09/22 12:26:37;;;;;;;12.80;9.82;;;;;;;;;;5032769;28;20025;-58
2023/09/22 12:29:05;;;;;;;14.73;9.75;;;;;;;;;;5032550;28;20021;-58
2023/09/22 12:31:31;;;;;;;16.83;11.93;;;;;;;;;;5030865;28;20022;-58
2023/09/22 12:33:57;;;;;;;15.13;11.20;;;;;;;;;;5032336;28;20030;-58
2023/09/22 12:39:27;;;;;;;15.07;11.52;;;;;;;;;;5022266;28;20092;-58
2023/09/22 12:41:54;;;;;;;16.92;12.98;;;;;;;;;;5012266;28;20452;-58
2023/09/22 12:44:22;;;;;;;17.20;13.20;;;;;;;;;;5014444;28;20482;-57
2023/09/22 12:46:48;;;;;;;14.80;12.00;;;;;;;;;;5014510;28;20127;-58
2023/09/22 12:49:14;;;;;;;16.95;12.43;;;;;;;;;;5030781;28;20048;-58
2023/09/22 12:51:40;;;;;;;15.63;12.75;;;;;;;;;;5032139;28;20395;-58
2023/09/22 12:54:06;;;;;;;15.77;11.65;;;;;;;;;;5032264;28;20029;-58
2023/09/22 12:56:47;;;;;;;12.95;11.27;;;;;;;;;;5032096;28;20078;-58
2023/09/22 12:59:13;;;;;;;19.95;12.73;;;;;;;;;;5031883;28;20022;-58
2023/09/22 13:01:39;;;;;;;16.48;10.43;;;;;;;;;;5031694;28;20105;-58
2023/09/22 13:04:05;;;;;;;14.55;11.43;;;;;;;;;;5029988;28;20113;-58
2023/09/22 13:06:31;;;;;;;14.95;11.80;;;;;;;;;;5029442;28;20132;-59
2023/09/22 13:08:59;;;;;;;18.05;12.30;;;;;;;;;;5026276;28;20022;-57
2023/09/22 13:11:25;;;;;;;14.38;11.82;;;;;;;;;;5026822;28;20116;-59
2023/09/22 13:13:51;;;;;;;12.50;11.15;;;;;;;;;;5031827;28;20503;-58
2023/09/22 13:16:18;;;;;;;13.57;11.40;;;;;;;;;;5031721;28;20372;-58
2023/09/22 13:18:46;;;;;;;14.75;11.15;;;;;;;;;;5031732;28;20041;-58
2023/09/22 13:21:15;;;;;;;14.20;11.35;;;;;;;;;;5031369;28;20068;-58
2023/09/22 13:23:44;;;;;;;17.77;10.93;;;;;;;;;;5027711;28;20049;-58
2023/09/22 13:26:10;;;;;;;19.88;14.25;;;;;;;;;;5028787;28;20048;-58
2023/09/22 13:28:36;;;;;;;17.00;13.93;;;;;;;;;;5028722;28;20399;-58
2023/09/22 13:31:05;;;;;;;24.15;15.40;;;;;;;;;;5029374;28;20018;-58
2023/09/22 13:33:32;;;;;;;19.90;13.90;;;;;;;;;;5030580;28;20192;-58
2023/09/22 13:35:58;;;;;;;21.30;14.30;;;;;;;;;;5031493;28;20029;-58
2023/09/22 13:38:24;;;;;;;16.25;13.55;;;;;;;;;;5031467;28;20031;-59
2023/09/22 13:40:50;;;;;;;18.52;14.25;;;;;;;;;;5031604;28;20060;-58
2023/09/22 13:43:16;;;;;;;18.73;12.65;;;;;;;;;;5031518;28;20047;-59
2023/09/22 13:45:42;;;;;;;16.13;11.75;;;;;;;;;;5029745;28;20026;-58
2023/09/22 13:48:09;;;;;;;23.77;20.30;;;;;;;;;;5031508;28;20029;-59
2023/09/22 13:50:35;;;;;;;49.15;28.30;;;;;;;;;;5031960;28;20375;-58
2023/09/22 13:53:01;;;;;;;17.92;11.77;;;;;;;;;;5035285;28;20025;-57
2023/09/22 13:55:27;;;;;;;16.58;10.60;;;;;;;;;;5035372;28;20021;-57
2023/09/22 13:57:55;;;;;;;12.65;7.70;;;;;;;;;;5035305;28;20025;-58
2023/09/22 14:00:21;;;;;;;13.45;9.00;;;;;;;;;;5035331;28;20115;-58
2023/09/22 14:02:47;;;;;;;9.73;6.43;;;;;;;;;;5035375;28;20049;-58
2023/09/22 14:05:13;;;;;;;11.32;8.20;;;;;;;;;;5035411;28;20120;-57
2023/09/22 14:07:40;;;;;;;8.70;4.80;;;;;;;;;;5035110;28;20053;-58
2023/09/22 14:10:08;;;;;;;8.48;4.50;;;;;;;;;;5035126;28;20027;-58
2023/09/22 14:12:34;;;;;;;7.97;4.85;;;;;;;;;;5035161;28;20025;-58
2023/09/22 14:15:00;;;;;;;6.40;4.22;;;;;;;;;;5035297;28;20025;-59
2023/09/22 14:17:26;;;;;;;13.25;6.13;;;;;;;;;;5034949;28;20491;-58
2023/09/22 14:19:52;;;;;;;6.88;4.43;;;;;;;;;;5034744;28;20056;-58
2023/09/22 14:22:18;;;;;;;7.30;5.82;;;;;;;;;;5034844;28;20041;-58
2023/09/22 14:24:46;;;;;;;9.32;5.55;;;;;;;;;;5034781;28;20104;-59
2023/09/22 14:27:13;;;;;;;8.50;6.20;;;;;;;;;;5034748;28;20021;-59
2023/09/22 14:29:39;;;;;;;7.72;6.05;;;;;;;;;;5016317;28;20025;-59
2023/09/22 14:32:05;;;;;;;9.43;5.90;;;;;;;;;;5034464;28;20083;-59
2023/09/22 14:34:31;;;;;;;7.72;5.38;;;;;;;;;;5016737;28;20464;-58
2023/09/22 14:36:57;;;;;;;7.43;5.53;;;;;;;;;;5034539;28;20030;-57
2023/09/22 14:39:24;;;;;;;10.02;5.28;;;;;;;;;;5034754;28;20022;-58
2023/09/22 14:41:50;;;;;;;7.05;5.35;;;;;;;;;;5034410;28;20440;-58
2023/09/22 14:44:16;;;;;;;8.13;6.63;;;;;;;;;;5033777;28;20714;-58
2023/09/22 14:46:42;;;;;;;11.35;6.90;;;;;;;;;;5034289;28;20030;-58
2023/09/22 14:49:08;;;;;;;9.45;5.50;;;;;;;;;;5049580;28;20151;-58
2023/09/22 14:51:34;;;;;;;14.27;10.20;;;;;;;;;;5033948;28;20022;-59